Hlavní strana
METAR-TAF:

METAR-TAF

Letiště :

McGhee Tyson Airport

Knoxville, Tennessee, Spojené státy americké

zeměpisná šířka: 35-49-05N, zeměpisná délka: 083-59-09W, výška: 299 m

Aktuální stav počasí

Zpráva byla vytvořena před 11 minutami, v 10:53 UTC
Bezvětří
Teplota 22°C
Vlhkost vzduchu 78%
Tlak 1021 hPa
Viditelnost: 16.1 km
Skoro jasno ve výšce 5000 ft
Skoro jasno ve výšce 25000 ft

METAR: KTYS 241053Z 00000KT 10SM FEW050 FEW250 22/18 A3016 RMK AO2 SLP202 T02170183

Čas: 07:04 (11:04 UTC)

Předpověď počasí

Zpráva byla vytvořena před 5 hodinami a 44 minutami, v 05:20 UTC
Předpověď platná od 24 v 06 UTC do 25 v 06 UTC
Západojihozápadní vítr 5 kt
Viditelnost: 10 km
Skoro jasno ve výšce 5000 ft

TAF: KTYS 240520Z 2406/2506 25005KT P6SM FEW050

Stav a předpovědi počasí z více než 4 000 letišť (zprávy METAR a TAF).

Červené a žluté tečky na mapě představují dostupné meteorologické stanice.

Když kurzor umístíte na tečku, zobrazí se název stanice.

Pak kliknutím zobrazíte stav a předpověď počasí.

Chcete-li změnit mapu, kliknutím na zelené tlačítko se znaménkem +mapu přiblížíte, kliknutím na zelené tlačítko se znaménkem – mapu oddálíte a kliknutím na zelené šipky přejdete na sousední mapy.


METAR-TAF: